Time;durP1;ratioP1;P1;durP2;ratioP2;P2;SDS_P1;SDS_P2;PMS_P1;PMS_P2;Temp;Humidity;BMP_temperature;BMP_pressure;BME280_temperature;BME280_humidity;BME280_pressure;Samples;Min_cycle;Max_cycle;Signal;HPM_P1;HPM_P2
2022/06/22 00:01:18;;;;;;;3.80;2.15;;;;;;;20.11;45.78;99632.88;5013034;28;20053;-60
2022/06/22 00:03:50;;;;;;;4.25;2.50;;;;;;;20.07;45.89;99650.19;5012602;28;20057;-60
2022/06/22 00:06:41;;;;;;;6.55;2.65;;;;;;;20.00;45.54;99643.78;5012500;28;20052;-61
2022/06/22 00:09:22;;;;;;;2.97;2.20;;;;;;;19.97;45.82;99644.06;5005189;28;20493;-60
2022/06/22 00:11:49;;;;;;;5.40;2.53;;;;;;;19.98;45.67;99640.38;4994995;28;20410;-62
2022/06/22 00:14:18;;;;;;;4.70;2.50;;;;;;;19.91;45.91;99638.34;5012358;28;20414;-60
2022/06/22 00:16:51;;;;;;;3.90;2.45;;;;;;;19.86;46.50;99632.63;5012257;28;20513;-61
2022/06/22 00:19:34;;;;;;;;;;;;;;;19.86;44.44;99629.09;4994664;28;20402;-60
2022/06/22 00:22:01;;;;;;;4.45;2.20;;;;;;;19.87;45.15;99634.28;5012418;28;19971;-60
2022/06/22 00:24:34;;;;;;;4.55;2.50;;;;;;;19.80;46.53;99622.53;5011786;28;20042;-59
2022/06/22 00:27:14;;;;;;;6.73;2.63;;;;;;;19.73;46.12;99626.81;4994624;28;20060;-60
2022/06/22 00:29:41;;;;;;;4.05;2.58;;;;;;;19.72;45.77;99627.78;5011525;28;20116;-61
2022/06/22 00:32:25;;;;;;;6.90;2.85;;;;;;;19.63;46.29;99622.34;5012317;28;20103;-59
2022/06/22 00:34:53;;;;;;;5.03;2.60;;;;;;;19.66;46.19;99616.72;5011848;28;20046;-59
2022/06/22 00:37:31;;;;;;;6.70;2.55;;;;;;;19.57;46.58;99622.94;5012467;28;20107;-58
2022/06/22 00:40:09;;;;;;;6.55;2.75;;;;;;;19.56;46.99;99621.28;5011453;28;20050;-60
2022/06/22 00:42:43;;;;;;;5.47;3.00;;;;;;;19.50;46.78;99617.38;4994455;28;20058;-61
2022/06/22 00:45:13;;;;;;;4.35;2.58;;;;;;;19.48;46.70;99618.50;5011460;28;20050;-61
2022/06/22 00:47:53;;;;;;;4.50;2.30;;;;;;;19.39;46.68;99623.75;4994063;28;20554;-61
2022/06/22 00:50:36;;;;;;;6.45;2.53;;;;;;;19.37;46.80;99620.38;5011692;28;20093;-60
2022/06/22 00:53:17;;;;;;;3.88;2.47;;;;;;;19.34;46.90;99623.38;5011830;28;20050;-60
2022/06/22 00:55:55;;;;;;;4.88;2.63;;;;;;;19.31;47.20;99626.31;4993877;28;20092;-62
2022/06/22 00:58:43;;;;;;;4.43;2.60;;;;;;;19.26;47.22;99634.75;4993995;28;20061;-60
2022/06/22 01:01:21;;;;;;;3.17;2.40;;;;;;;19.26;47.52;99620.59;5011803;28;20112;-58
2022/06/22 01:04:15;;;;;;;5.63;2.58;;;;;;;19.20;46.90;99610.50;5011703;28;20053;-60
2022/06/22 01:06:50;;;;;;;3.70;2.63;;;;;;;19.21;47.80;99614.84;5011314;28;20042;-60
2022/06/22 01:09:23;;;;;;;6.85;3.03;;;;;;;19.20;47.04;99623.81;4993824;28;20100;-59
2022/06/22 01:12:16;;;;;;;5.63;2.70;;;;;;;19.17;47.73;99616.13;5011310;28;20052;-62
2022/06/22 01:15:05;;;;;;;5.40;2.90;;;;;;;19.17;47.04;99621.47;5011177;28;20197;-60
2022/06/22 01:17:54;;;;;;;5.82;2.83;;;;;;;19.13;47.42;99626.25;5003217;28;20053;-61
2022/06/22 01:20:52;;;;;;;4.40;2.42;;;;;;;19.04;47.50;99627.94;5010865;28;20116;-61
2022/06/22 01:23:56;;;;;;;6.18;2.70;;;;;;;19.00;47.54;99623.88;5011342;28;20421;-60
2022/06/22 01:26:49;;;;;;;5.78;3.25;;;;;;;18.97;48.12;99625.03;5011247;28;20111;-60
2022/06/22 01:29:25;;;;;;;5.55;2.92;;;;;;;18.94;48.32;99621.78;5011168;28;20057;-60
2022/06/22 01:32:12;;;;;;;6.18;3.13;;;;;;;18.87;47.81;99609.03;5010831;28;20128;-59
2022/06/22 01:34:42;;;;;;;9.50;3.03;;;;;;;18.86;48.30;99609.19;4993197;28;20064;-62
2022/06/22 01:37:25;;;;;;;3.67;2.83;;;;;;;18.81;48.20;99606.97;5011099;28;20139;-59
2022/06/22 01:39:58;;;;;;;6.23;2.80;;;;;;;18.77;48.17;99610.06;5010552;28;20050;-59
2022/06/22 01:42:33;;;;;;;9.65;3.53;;;;;;;18.70;48.54;99605.31;5010737;28;20045;-61
2022/06/22 01:45:36;;;;;;;4.30;3.00;;;;;;;18.61;48.09;99614.16;4993378;28;20561;-59
2022/06/22 01:48:11;;;;;;;3.88;2.70;;;;;;;18.57;48.12;99615.41;5010573;28;20557;-59
2022/06/22 01:50:48;;;;;;;6.28;3.10;;;;;;;18.49;48.66;99609.00;5010408;28;20060;-58
2022/06/22 01:53:34;;;;;;;4.68;3.60;;;;;;;18.41;49.03;99608.88;5010779;28;20108;-62
2022/06/22 01:56:18;;;;;;;5.53;3.00;;;;;;;18.33;48.76;99601.59;4993347;28;20054;-60
2022/06/22 01:59:22;;;;;;;6.93;3.78;;;;;;;18.29;49.00;99602.00;5010790;28;20054;-59
2022/06/22 02:02:04;;;;;;;3.65;2.55;;;;;;;18.22;49.18;99604.41;4985188;28;20050;-59
2022/06/22 02:04:39;;;;;;;4.28;2.75;;;;;;;18.18;49.25;99609.19;4993283;28;20054;-59
2022/06/22 02:10:13;;;;;;;4.32;3.13;;;;;;;18.03;49.31;99605.22;5010568;28;20076;-60
2022/06/22 02:12:46;;;;;;;10.57;3.33;;;;;;;18.00;49.21;99603.66;5010815;28;20062;-60
2022/06/22 02:15:26;;;;;;;5.32;3.70;;;;;;;17.95;49.81;99603.25;4993138;28;20046;-60
2022/06/22 02:17:54;;;;;;;3.70;3.17;;;;;;;17.93;49.38;99610.53;4993069;28;20078;-60
2022/06/22 02:20:31;;;;;;;4.55;3.45;;;;;;;17.84;50.25;99606.88;4992884;28;20100;-60
2022/06/22 02:23:23;;;;;;;5.55;3.97;;;;;;;17.77;50.20;99605.75;4993141;28;20054;-60
2022/06/22 02:25:57;;;;;;;6.53;3.00;;;;;;;17.79;50.54;99606.47;5010559;28;20092;-60
2022/06/22 02:28:23;;;;;;;7.10;3.80;;;;;;;17.79;49.99;99601.97;4992943;28;20057;-58
2022/06/22 02:30:51;;;;;;;5.40;3.20;;;;;;;17.79;49.96;99606.47;5010478;28;20100;-60
2022/06/22 02:33:18;;;;;;;6.95;3.50;;;;;;;17.79;49.94;99603.81;5010445;28;20400;-63
2022/06/22 02:35:46;;;;;;;7.05;3.72;;;;;;;17.79;50.08;99601.97;4993073;28;20112;-59
2022/06/22 02:38:15;;;;;;;11.38;3.70;;;;;;;17.79;49.88;99586.00;4992696;28;20054;-59
2022/06/22 02:46:22;;;;;;;5.50;3.97;;;;;;;17.73;50.30;99575.91;5011568;28;20092;-60
2022/06/22 02:48:54;;;;;;;4.47;3.45;;;;;;;17.68;51.00;99588.81;5013578;28;20780;-60
2022/06/22 02:51:39;;;;;;;9.60;4.20;;;;;;;17.63;51.26;99596.34;4996023;28;20116;-59
2022/06/22 02:54:21;;;;;;;5.47;3.53;;;;;;;17.61;51.14;99604.47;5013956;28;20054;-59
2022/06/22 02:56:53;;;;;;;6.45;4.15;;;;;;;17.63;50.70;99606.97;5014088;28;20061;-59
2022/06/22 02:59:19;;;;;;;5.47;3.63;;;;;;;17.61;50.75;99600.97;4996052;28;20050;-59
2022/06/22 03:01:46;;;;;;;4.30;3.00;;;;;;;17.60;50.67;99601.94;5013698;28;20100;-59
2022/06/22 03:04:15;;;;;;;5.30;3.30;;;;;;;17.58;50.77;99597.59;5013600;28;20053;-60
2022/06/22 03:06:48;;;;;;;7.93;3.67;;;;;;;17.54;51.49;99593.50;4995966;28;20096;-58
2022/06/22 03:09:16;;;;;;;7.95;3.65;;;;;;;17.55;50.97;99595.22;5013224;28;20495;-59
2022/06/22 03:11:46;;;;;;;10.63;4.55;;;;;;;17.52;51.45;99611.44;5013302;28;20054;-60
2022/06/22 03:14:37;;;;;;;13.30;3.95;;;;;;;17.47;51.65;99602.19;4995835;28;20050;-61
2022/06/22 03:17:13;;;;;;;9.32;4.03;;;;;;;17.47;51.79;99596.88;5013490;28;20461;-60
2022/06/22 03:19:53;;;;;;;6.88;3.92;;;;;;;17.44;51.44;99584.69;5013203;28;20049;-61
2022/06/22 03:22:26;;;;;;;7.70;3.80;;;;;;;17.43;51.82;99580.34;4995908;28;20042;-62
2022/06/22 03:25:05;;;;;;;9.60;4.25;;;;;;;17.39;52.03;99576.28;5013268;28;20050;-61
2022/06/22 03:27:36;;;;;;;7.45;4.07;;;;;;;17.38;51.66;99578.06;5013427;28;20050;-57
2022/06/22 03:30:11;;;;;;;6.05;4.22;;;;;;;17.36;51.96;99571.22;5012946;28;20046;-61
2022/06/22 03:32:48;;;;;;;6.63;4.68;;;;;;;17.32;52.57;99563.50;5013072;28;20042;-57
2022/06/22 03:35:28;;;;;;;7.18;4.35;;;;;;;17.30;52.36;99561.94;4995551;28;20053;-60
2022/06/22 03:38:14;;;;;;;4.60;3.97;;;;;;;17.26;52.11;99550.75;5012933;28;20088;-60
2022/06/22 03:40:46;;;;;;;8.20;4.18;;;;;;;17.27;52.13;99551.59;4995396;28;20564;-60
2022/06/22 03:43:22;;;;;;;5.90;4.55;;;;;;;17.23;52.58;99548.34;5013121;28;20049;-60
2022/06/22 03:46:03;;;;;;;6.93;4.28;;;;;;;17.19;52.58;99549.59;5013001;28;20104;-62
2022/06/22 03:48:40;;;;;;;5.57;4.00;;;;;;;17.20;51.72;99532.69;5012858;28;20445;-60
2022/06/22 03:51:11;;;;;;;8.40;4.22;;;;;;;17.16;52.72;99525.97;4995284;28;20112;-60
2022/06/22 03:53:41;;;;;;;7.30;4.30;;;;;;;17.14;52.08;99527.91;5012611;28;20131;-60
2022/06/22 03:56:12;;;;;;;5.22;4.10;;;;;;;17.11;52.54;99525.50;5012591;28;20100;-60
2022/06/22 03:58:42;;;;;;;5.88;4.30;;;;;;;17.10;52.67;99532.66;5012015;28;20049;-59
2022/06/22 04:01:10;;;;;;;6.60;4.25;;;;;;;17.09;52.41;99538.97;5012629;28;20568;-59
2022/06/22 04:03:37;;;;;;;8.85;5.20;;;;;;;17.09;52.30;99540.75;5012724;28;20514;-58
2022/06/22 04:06:04;;;;;;;8.27;4.05;;;;;;;17.09;52.32;99530.13;5012439;28;20048;-60
2022/06/22 04:08:37;;;;;;;5.70;3.95;;;;;;;17.06;52.74;99536.56;5012081;28;20446;-60
2022/06/22 04:11:14;;;;;;;6.28;4.30;;;;;;;17.05;52.44;99529.56;5012703;28;20049;-60
2022/06/22 04:13:49;;;;;;;5.20;3.40;;;;;;;17.04;52.31;99534.03;4995012;28;20093;-60
2022/06/22 04:16:18;;;;;;;5.63;3.42;;;;;;;17.06;51.90;99528.59;4994864;28;20395;-59
2022/06/22 04:18:57;;;;;;;5.22;3.50;;;;;;;17.02;52.11;99525.34;5011991;28;20129;-59
2022/06/22 04:21:35;;;;;;;6.13;3.35;;;;;;;17.03;51.95;99526.16;5012114;28;20519;-58
2022/06/22 04:24:13;;;;;;;7.47;3.88;;;;;;;17.04;52.18;99528.72;4994621;28;20434;-60
2022/06/22 04:26:54;;;;;;;6.35;3.45;;;;;;;17.03;51.95;99516.38;4994748;28;20050;-59
2022/06/22 04:29:41;;;;;;;7.78;4.00;;;;;;;17.05;52.02;99521.59;4994322;28;20100;-58
2022/06/22 04:32:14;;;;;;;5.75;4.13;;;;;;;17.09;52.09;99527.47;5012101;28;20100;-60
2022/06/22 04:34:52;;;;;;;4.55;3.65;;;;;;;17.08;52.27;99536.44;5012178;28;20130;-59
2022/06/22 04:37:25;;;;;;;6.93;3.92;;;;;;;17.11;52.31;99544.13;4994499;28;20103;-60
2022/06/22 04:39:57;;;;;;;7.90;4.45;;;;;;;17.13;52.29;99555.47;4994382;28;20104;-60
2022/06/22 04:42:23;;;;;;;6.53;4.00;;;;;;;17.15;51.87;99558.81;5012021;28;20061;-60
2022/06/22 04:44:51;;;;;;;7.97;4.05;;;;;;;17.17;51.99;99564.88;5011794;28;20050;-60
2022/06/22 04:47:26;;;;;;;6.65;3.90;;;;;;;17.19;51.89;99573.53;5011935;28;20061;-60
2022/06/22 04:49:58;;;;;;;4.90;4.10;;;;;;;17.22;52.37;99589.22;5011483;28;20100;-59
2022/06/22 04:52:35;;;;;;;4.00;3.33;;;;;;;17.25;51.99;99593.44;4994218;28;20353;-64
2022/06/22 04:55:05;;;;;;;4.78;3.30;;;;;;;17.29;51.62;99590.38;5011659;28;20049;-59
2022/06/22 04:57:37;;;;;;;7.50;3.00;;;;;;;17.33;51.73;99601.59;4994154;28;20092;-60
2022/06/22 05:00:12;;;;;;;5.53;2.93;;;;;;;17.37;51.36;99605.66;4993973;28;20119;-59
2022/06/22 05:02:42;;;;;;;4.22;3.00;;;;;;;17.40;51.68;99608.06;4993902;28;20289;-60
2022/06/22 05:05:15;;;;;;;5.07;3.25;;;;;;;17.43;52.12;99617.59;4994030;28;20046;-61
2022/06/22 05:07:51;;;;;;;4.50;2.57;;;;;;;17.47;51.76;99607.50;4994139;28;20050;-61
2022/06/22 05:10:28;;;;;;;4.47;2.40;;;;;;;17.52;51.38;99616.78;4992803;28;20076;-60
2022/06/22 05:12:58;;;;;;;7.60;2.67;;;;;;;17.57;51.02;99609.22;5011260;28;20042;-59
2022/06/22 05:15:31;;;;;;;5.82;2.63;;;;;;;17.63;51.18;99617.63;4993808;28;20061;-62
2022/06/22 05:18:01;;;;;;;3.35;2.38;;;;;;;17.69;51.09;99628.56;5011274;28;20045;-60
2022/06/22 05:20:39;;;;;;;6.47;2.80;;;;;;;17.75;51.20;99623.69;5011495;28;20042;-60
2022/06/22 05:23:07;;;;;;;4.03;2.35;;;;;;;17.83;50.57;99616.69;4993534;28;20465;-59
2022/06/22 05:25:36;;;;;;;3.00;2.42;;;;;;;17.89;50.78;99620.63;5010929;28;20057;-59
2022/06/22 05:28:16;;;;;;;4.78;2.60;;;;;;;17.94;50.65;99618.38;4993843;28;20058;-62
2022/06/22 05:30:58;;;;;;;4.68;2.65;;;;;;;18.01;50.44;99631.97;5011133;28;20065;-60
2022/06/22 05:33:27;;;;;;;7.05;2.83;;;;;;;18.08;50.50;99621.63;5011342;28;20457;-59
2022/06/22 05:36:08;;;;;;;4.72;2.75;;;;;;;18.13;50.55;99624.72;4993191;28;20049;-59
2022/06/22 05:38:44;;;;;;;7.95;3.25;;;;;;;18.21;50.63;99621.38;5010815;28;20046;-59
2022/06/22 05:41:12;;;;;;;;;;;;;;;18.27;49.83;99620.78;5011636;28;20452;-60
2022/06/22 05:43:40;;;;;;;4.30;2.75;;;;;;;18.38;49.64;99611.00;4993679;28;19929;-59
2022/06/22 05:46:10;;;;;;;6.80;2.60;;;;;;;18.41;50.17;99613.34;4993276;28;20045;-61
2022/06/22 05:48:44;;;;;;;6.30;3.00;;;;;;;18.44;50.22;99619.25;5010544;28;20050;-60
2022/06/22 05:51:27;;;;;;;4.28;2.50;;;;;;;18.48;50.40;99610.00;5010484;28;20486;-59
2022/06/22 05:54:00;;;;;;;;;;;;;;;18.55;49.37;99612.94;5011466;28;20046;-59
2022/06/22 05:56:38;;;;;;;4.50;2.88;;;;;;;18.64;49.79;99618.38;5010759;28;19921;-59
2022/06/22 05:59:13;;;;;;;13.65;2.65;;;;;;;18.69;49.41;99627.59;4993328;28;20116;-61
2022/06/22 06:01:49;;;;;;;6.32;2.88;;;;;;;18.70;49.63;99615.97;4993247;28;20053;-63
2022/06/22 06:04:26;;;;;;;3.25;2.67;;;;;;;18.78;49.52;99617.06;5010809;28;20487;-58
2022/06/22 06:06:59;;;;;;;3.38;2.75;;;;;;;18.81;49.51;99608.78;5010954;28;20064;-59
2022/06/22 06:09:27;;;;;;;5.28;2.58;;;;;;;18.88;49.47;99617.91;5010501;28;20497;-59
2022/06/22 06:12:13;;;;;;;6.45;3.08;;;;;;;18.92;49.47;99621.09;5010390;28;20391;-59
2022/06/22 06:14:45;;;;;;;3.03;2.25;;;;;;;18.98;49.18;99612.50;5010980;28;20088;-59
2022/06/22 06:17:17;;;;;;;5.15;3.13;;;;;;;19.01;49.06;99618.41;4993067;28;20041;-59
2022/06/22 06:19:50;;;;;;;6.40;2.65;;;;;;;19.06;48.98;99606.50;4992719;28;20107;-61
2022/06/22 06:22:17;;;;;;;3.50;2.47;;;;;;;19.15;48.73;99613.63;4995646;28;20189;-62
2022/06/22 06:27:42;;;;;;;3.80;2.45;;;;;;;19.23;48.13;99604.88;5014485;28;20061;-61
2022/06/22 06:30:28;;;;;;;3.15;2.17;;;;;;;19.27;48.50;99612.44;5013992;28;20058;-60
2022/06/22 06:33:16;;;;;;;5.78;1.98;;;;;;;19.30;48.20;99613.13;5014464;28;20556;-62
2022/06/22 06:35:53;;;;;;;4.13;2.35;;;;;;;19.36;48.32;99609.88;4997106;28;20488;-60
2022/06/22 06:38:41;;;;;;;3.22;2.20;;;;;;;19.39;48.12;99607.75;5014245;28;20080;-60
2022/06/22 06:41:33;;;;;;;3.92;2.20;;;;;;;19.46;48.12;99617.81;5013890;28;20049;-59
2022/06/22 06:44:03;;;;;;;4.85;2.47;;;;;;;19.56;48.04;99618.59;5014337;28;20345;-59
2022/06/22 06:46:38;;;;;;;5.15;2.42;;;;;;;19.60;48.13;99620.00;4996576;28;20108;-62
2022/06/22 06:49:49;;;;;;;3.65;2.30;;;;;;;19.64;48.20;99624.03;5014021;28;20072;-59
2022/06/22 06:52:27;;;;;;;3.20;2.20;;;;;;;19.75;48.29;99624.81;4952769;29;20047;-60
2022/06/22 06:55:02;;;;;;;5.70;2.30;;;;;;;19.82;48.18;99625.91;5010157;28;20054;-59
2022/06/22 06:57:30;;;;;;;5.22;2.30;;;;;;;19.91;47.68;99629.47;5014189;28;20104;-59
2022/06/22 07:00:00;;;;;;;4.22;1.95;;;;;;;19.97;48.14;99620.00;5013635;28;20461;-59
2022/06/22 07:02:32;;;;;;;4.85;1.95;;;;;;;20.03;48.09;99619.44;5013527;28;20486;-61
2022/06/22 07:05:01;;;;;;;3.47;2.08;;;;;;;20.11;47.68;99611.47;5013690;28;20053;-59
2022/06/22 07:07:36;;;;;;;5.18;1.95;;;;;;;20.21;47.83;99619.44;5013416;28;20046;-61
2022/06/22 07:10:13;;;;;;;7.97;2.00;;;;;;;20.27;47.62;99615.31;5013659;28;20101;-60
2022/06/22 07:12:48;;;;;;;4.50;2.08;;;;;;;20.35;47.46;99628.75;5013297;28;20046;-61
2022/06/22 07:15:22;;;;;;;6.30;1.77;;;;;;;20.44;47.01;99629.63;4996442;28;20049;-60
2022/06/22 07:17:53;;;;;;;3.20;1.80;;;;;;;20.51;47.12;99628.03;4995813;28;20056;-60
2022/06/22 07:20:25;;;;;;;4.45;1.85;;;;;;;20.57;47.28;99632.72;5013409;28;20108;-60
2022/06/22 07:23:14;;;;;;;7.00;1.92;;;;;;;20.62;47.23;99621.59;4995890;28;20053;-61
2022/06/22 07:25:47;;;;;;;5.60;2.33;;;;;;;20.73;47.02;99623.16;5013336;28;20046;-60
2022/06/22 07:28:22;;;;;;;3.22;1.98;;;;;;;20.80;47.01;99632.25;4995644;28;20068;-59
2022/06/22 07:31:00;;;;;;;3.78;1.88;;;;;;;20.87;46.58;99634.28;5013335;28;20561;-59
2022/06/22 07:33:48;;;;;;;3.25;1.60;;;;;;;20.92;46.75;99640.88;5012009;28;20046;-59
2022/06/22 07:36:22;;;;;;;3.67;1.88;;;;;;;21.03;46.77;99634.41;5013021;28;20049;-59
2022/06/22 07:39:10;;;;;;;5.25;2.13;;;;;;;21.11;46.68;99624.75;4994974;28;20054;-59
2022/06/22 07:41:37;;;;;;;4.15;2.08;;;;;;;21.23;46.87;99634.16;5013348;28;20076;-60
2022/06/22 07:44:10;;;;;;;2.67;1.60;;;;;;;21.29;46.16;99638.03;5013135;28;20139;-59
2022/06/22 07:46:45;;;;;;;4.72;1.90;;;;;;;21.38;46.34;99629.03;5012811;28;20076;-60
2022/06/22 07:49:18;;;;;;;2.85;2.00;;;;;;;21.48;46.05;99627.06;5012601;28;20477;-60
2022/06/22 07:51:50;;;;;;;3.47;2.00;;;;;;;21.59;46.53;99623.25;4995240;28;20054;-60
2022/06/22 07:54:37;;;;;;;3.92;1.88;;;;;;;21.68;46.37;99626.78;4995172;28;20050;-60
2022/06/22 07:57:36;;;;;;;5.78;2.50;;;;;;;21.80;46.40;99626.50;5012781;28;20057;-60
2022/06/22 08:00:16;;;;;;;3.88;1.92;;;;;;;21.93;45.85;99626.88;5012299;28;20457;-59
2022/06/22 08:03:00;;;;;;;9.80;2.58;;;;;;;22.04;46.37;99641.78;5012564;28;20107;-62
2022/06/22 08:05:31;;;;;;;3.45;1.90;;;;;;;22.17;45.52;99643.16;4994822;28;20053;-62
2022/06/22 08:08:15;;;;;;;4.38;1.75;;;;;;;22.23;45.27;99637.97;5012373;28;20453;-60
2022/06/22 08:10:53;;;;;;;9.35;2.33;;;;;;;22.35;45.47;99646.50;5012755;28;20084;-60
2022/06/22 08:13:23;;;;;;;5.68;2.25;;;;;;;22.48;45.06;99631.75;5012482;28;20096;-61
2022/06/22 08:15:57;;;;;;;6.93;2.08;;;;;;;22.58;44.81;99628.94;5012385;28;20049;-61
2022/06/22 08:18:23;;;;;;;4.97;1.90;;;;;;;22.70;44.85;99626.72;4994682;28;20049;-61
2022/06/22 08:20:53;;;;;;;2.90;1.88;;;;;;;22.80;44.37;99629.25;5012322;28;20050;-60
2022/06/22 08:23:23;;;;;;;3.13;1.70;;;;;;;22.88;44.13;99618.47;5012576;28;20053;-61
2022/06/22 08:26:04;;;;;;;3.55;1.88;;;;;;;22.98;44.06;99627.16;5011960;28;20049;-59
2022/06/22 08:28:34;;;;;;;3.53;1.77;;;;;;;23.11;44.04;99625.78;5011950;28;20058;-61
2022/06/22 08:31:02;;;;;;;7.43;2.08;;;;;;;23.22;43.75;99621.91;4994373;28;20115;-61
2022/06/22 08:33:34;;;;;;;2.63;1.70;;;;;;;23.31;43.29;99620.84;5012082;28;20541;-59
2022/06/22 08:36:08;;;;;;;3.38;1.75;;;;;;;23.38;43.38;99615.63;5011975;28;20104;-59
2022/06/22 08:38:46;;;;;;;4.53;2.03;;;;;;;23.47;42.91;99617.28;5012136;28;20077;-59
2022/06/22 08:41:31;;;;;;;2.35;1.70;;;;;;;23.58;43.10;99616.03;5011789;28;20193;-62
2022/06/22 08:44:25;;;;;;;4.60;1.77;;;;;;;23.65;42.87;99616.16;5012087;28;20050;-61
2022/06/22 08:47:13;;;;;;;3.60;2.08;;;;;;;23.76;42.96;99606.88;4994194;28;20053;-61
2022/06/22 08:50:03;;;;;;;2.95;1.70;;;;;;;23.89;42.65;99606.28;4993878;28;20479;-61
2022/06/22 08:52:51;;;;;;;2.28;1.50;;;;;;;23.99;42.53;99600.69;5012139;28;20053;-60
2022/06/22 08:55:50;;;;;;;5.95;1.92;;;;;;;24.06;42.16;99599.78;5011618;28;20054;-60
2022/06/22 08:58:35;;;;;;;3.45;1.83;;;;;;;24.20;43.01;99597.34;5011628;28;20406;-60
2022/06/22 09:01:07;;;;;;;4.43;1.58;;;;;;;24.28;42.84;99599.97;5011528;28;20108;-64
2022/06/22 09:03:51;;;;;;;3.85;1.98;;;;;;;24.40;42.77;99602.22;5011505;28;20061;-61
2022/06/22 09:06:43;;;;;;;4.38;2.20;;;;;;;24.48;42.61;99610.19;5011375;28;20112;-63
2022/06/22 09:09:27;;;;;;;4.45;2.10;;;;;;;24.58;42.74;99604.56;5011533;28;20056;-60
2022/06/22 09:12:16;;;;;;;4.43;2.08;;;;;;;24.69;43.23;99608.66;5011256;28;20053;-60
2022/06/22 09:15:07;;;;;;;4.85;1.83;;;;;;;24.79;42.36;99611.94;5011067;28;20112;-60
2022/06/22 09:18:13;;;;;;;3.45;1.95;;;;;;;24.91;42.48;99616.88;5011370;28;20066;-60
2022/06/22 09:21:09;;;;;;;3.85;1.90;;;;;;;25.01;42.17;99612.06;5011114;28;20057;-60
2022/06/22 09:23:39;;;;;;;4.90;1.85;;;;;;;25.13;41.00;99614.25;4993691;28;20061;-60
2022/06/22 09:26:12;;;;;;;2.40;1.90;;;;;;;25.21;41.78;99620.41;5011200;28;20104;-60
2022/06/22 09:28:52;;;;;;;3.58;1.70;;;;;;;25.28;40.89;99619.63;5010847;28;20398;-60
2022/06/22 09:31:50;;;;;;;4.68;1.90;;;;;;;25.33;41.00;99623.44;4993462;28;20100;-60
2022/06/22 09:34:46;;;;;;;2.67;1.65;;;;;;;25.44;40.91;99632.91;5011210;28;20085;-59
2022/06/22 09:37:43;;;;;;;4.97;2.00;;;;;;;25.54;41.29;99635.31;5010907;28;20057;-62
2022/06/22 09:40:13;;;;;;;2.50;1.60;;;;;;;25.65;40.76;99634.00;5010915;28;20053;-59
2022/06/22 09:43:09;;;;;;;4.93;2.08;;;;;;;25.72;41.27;99636.78;4993541;28;20046;-59
2022/06/22 09:45:54;;;;;;;4.13;1.90;;;;;;;25.87;40.48;99631.34;5010902;28;20072;-60
2022/06/22 09:48:42;;;;;;;4.40;1.55;;;;;;;25.93;40.54;99621.66;5010746;28;20060;-62
2022/06/22 09:51:29;;;;;;;3.13;1.60;;;;;;;26.02;40.07;99625.91;5010478;28;20461;-59
2022/06/22 09:53:59;;;;;;;4.10;2.00;;;;;;;26.13;38.65;99628.06;5010765;28;20050;-59
2022/06/22 09:56:44;;;;;;;2.20;1.42;;;;;;;26.21;39.07;99632.50;5010048;28;20046;-62
2022/06/22 09:59:45;;;;;;;3.47;1.42;;;;;;;26.26;39.80;99635.47;5010724;28;20054;-60
2022/06/22 10:02:21;;;;;;;5.57;1.50;;;;;;;26.39;39.05;99633.94;5010788;28;20050;-60
2022/06/22 10:04:56;;;;;;;1.58;1.17;;;;;;;26.44;38.30;99644.97;4993284;28;20069;-62
2022/06/22 10:07:45;;;;;;;4.00;1.40;;;;;;;26.52;38.19;99639.44;5010685;28;20108;-61
2022/06/22 10:10:44;;;;;;;1.48;1.08;;;;;;;26.59;38.50;99635.94;5010490;28;20409;-60
2022/06/22 10:13:29;;;;;;;3.85;1.40;;;;;;;26.67;38.55;99639.34;5010952;28;20049;-60
2022/06/22 10:16:23;;;;;;;3.35;1.35;;;;;;;26.74;37.13;99638.53;5010588;28;20054;-59
2022/06/22 10:19:06;;;;;;;2.47;1.30;;;;;;;26.80;37.00;99637.78;5010390;28;20050;-61
2022/06/22 10:22:13;;;;;;;2.60;1.17;;;;;;;26.85;38.36;99642.56;5010641;28;20080;-60
2022/06/22 10:24:55;;;;;;;4.30;1.40;;;;;;;26.93;37.45;99640.56;5000394;28;20089;-61
2022/06/22 10:27:41;;;;;;;2.27;0.93;;;;;;;27.02;36.10;99635.03;5010764;28;20471;-59
2022/06/22 10:30:46;;;;;;;2.90;1.23;;;;;;;27.10;37.31;99642.13;5010434;28;20077;-59
2022/06/22 10:33:45;;;;;;;2.80;1.40;;;;;;;27.19;37.38;99630.13;4957167;28;20452;-61
2022/06/22 10:36:46;;;;;;;5.03;1.55;;;;;;;27.30;37.34;99629.56;5010414;28;20483;-61
2022/06/22 10:39:40;;;;;;;3.58;1.48;;;;;;;27.45;37.31;99626.72;5010533;28;20486;-60
2022/06/22 10:45:39;;;;;;;2.25;1.10;;;;;;;27.93;36.77;99624.16;5010402;28;20054;-60
2022/06/22 10:48:35;;;;;;;3.88;1.67;;;;;;;28.25;37.51;99631.69;5010375;28;20096;-60
2022/06/22 10:51:35;;;;;;;3.20;1.25;;;;;;;28.73;37.21;99626.06;5010241;28;20414;-60
2022/06/22 10:54:21;;;;;;;2.13;1.45;;;;;;;29.36;36.88;99625.69;5010494;28;20084;-60
2022/06/22 10:56:53;;;;;;;3.10;1.67;;;;;;;29.98;35.42;99625.16;5009928;28;20556;-60
2022/06/22 10:59:29;;;;;;;1.75;1.25;;;;;;;30.54;34.19;99635.41;5010082;28;20104;-60
2022/06/22 11:02:26;;;;;;;2.53;1.50;;;;;;;31.16;33.38;99623.72;5010414;28;20143;-60
2022/06/22 11:05:06;;;;;;;1.90;1.10;;;;;;;31.69;33.73;99628.72;5010186;28;20503;-60
2022/06/22 11:08:10;;;;;;;3.53;1.45;;;;;;;32.19;32.87;99621.28;5010141;28;20046;-62
2022/06/22 11:10:43;;;;;;;3.38;1.23;;;;;;;32.71;30.99;99620.63;5013424;28;20058;-61
2022/06/22 11:13:15;;;;;;;3.78;1.50;;;;;;;33.05;30.61;99622.75;5013443;28;20089;-61
2022/06/22 11:16:01;;;;;;;;;;;;;;;33.30;33.47;99618.06;5014018;28;20108;-61
2022/06/22 11:18:36;;;;;;;3.05;1.27;;;;;;;33.69;30.52;99607.34;5013401;28;19928;-60
2022/06/22 11:21:40;;;;;;;2.70;1.40;;;;;;;33.93;31.38;99607.19;5013644;28;20049;-60
2022/06/22 11:24:13;;;;;;;3.35;1.30;;;;;;;34.27;29.16;99609.97;5013205;28;20054;-63
2022/06/22 11:32:52;;;;;;;4.45;1.27;;;;;;;35.16;28.21;99603.84;5013236;28;20128;-60
2022/06/22 11:35:43;;;;;;;2.47;1.30;;;;;;;35.37;28.47;99587.69;5013370;28;20050;-61
2022/06/22 11:38:35;;;;;;;3.42;1.30;;;;;;;35.61;27.17;99582.72;5013012;28;20050;-61
2022/06/22 11:41:30;;;;;;;3.97;1.10;;;;;;;35.80;27.83;99581.53;5003201;28;20046;-60
2022/06/22 11:44:17;;;;;;;1.25;1.15;;;;;;;36.00;27.31;99583.63;5013034;28;20478;-61
2022/06/22 11:46:56;;;;;;;1.92;1.00;;;;;;;36.16;26.66;99576.38;5012960;28;20058;-61
2022/06/22 11:50:00;;;;;;;7.55;1.23;;;;;;;36.29;26.57;99572.34;5012775;28;20115;-62
2022/06/22 11:52:35;;;;;;;12.68;1.20;;;;;;;36.50;25.65;99581.53;5002217;28;20100;-60
2022/06/22 11:55:32;;;;;;;2.58;1.25;;;;;;;36.62;26.15;99577.72;4979391;28;20446;-60
2022/06/22 11:58:24;;;;;;;1.10;1.00;;;;;;;36.80;26.48;99572.94;5012894;28;20436;-60
2022/06/22 12:01:12;;;;;;;2.88;1.05;;;;;;;36.94;25.01;99567.75;4995710;28;20046;-61
2022/06/22 12:04:18;;;;;;;3.22;1.20;;;;;;;37.06;25.95;99573.00;5012961;28;20061;-61
2022/06/22 12:06:56;;;;;;;2.40;1.17;;;;;;;37.21;24.76;99567.59;5012827;28;20045;-62
2022/06/22 12:09:28;;;;;;;1.67;1.10;;;;;;;37.27;23.45;99566.53;4994871;28;20046;-61
2022/06/22 12:11:58;;;;;;;2.40;1.17;;;;;;;37.36;24.28;99560.47;5012719;28;20477;-62
2022/06/22 12:17:27;;;;;;;1.95;0.88;;;;;;;37.54;24.15;99548.16;5012535;28;20108;-62
2022/06/22 12:20:02;;;;;;;3.75;1.00;;;;;;;37.69;23.25;99552.88;5011655;28;20087;-62
2022/06/22 12:22:38;;;;;;;1.80;0.90;;;;;;;37.83;22.30;99549.56;5012266;28;20498;-62
2022/06/22 12:25:32;;;;;;;2.45;1.00;;;;;;;37.92;22.44;99548.75;5012294;28;20057;-61
2022/06/22 12:28:32;;;;;;;1.63;0.85;;;;;;;38.06;23.53;99549.00;5011651;28;20054;-62
2022/06/22 12:31:24;;;;;;;1.73;0.82;;;;;;;38.27;24.13;99548.16;5012027;28;20557;-61
2022/06/22 12:33:56;;;;;;;1.80;0.90;;;;;;;38.50;22.20;99551.41;5011878;28;20050;-61
2022/06/22 12:36:32;;;;;;;11.82;1.30;;;;;;;38.60;21.54;99539.56;4994751;28;20494;-60
2022/06/22 12:39:06;;;;;;;2.53;1.10;;;;;;;38.67;21.73;99543.66;5011616;28;20057;-60
2022/06/22 12:41:48;;;;;;;2.20;0.90;;;;;;;38.73;21.25;99541.72;4994837;28;20509;-61
2022/06/22 12:44:36;;;;;;;0.82;0.73;;;;;;;38.82;21.36;99536.44;4994442;28;20475;-63
2022/06/22 12:47:15;;;;;;;2.30;1.00;;;;;;;38.88;22.04;99540.81;5011785;28;20355;-61
2022/06/22 12:50:13;;;;;;;1.60;0.80;;;;;;;38.99;22.34;99529.75;5011792;28;20050;-62
2022/06/22 12:52:47;;;;;;;4.55;0.98;;;;;;;39.16;21.02;99537.69;5011741;28;20160;-61
2022/06/22 12:55:21;;;;;;;2.03;0.88;;;;;;;39.28;20.61;99531.81;4994074;28;20058;-60